Time;durP1;ratioP1;P1;durP2;ratioP2;P2;SDS_P1;SDS_P2;PMS_P1;PMS_P2;Temp;Humidity;BMP_temperature;BMP_pressure;BME280_temperature;BME280_humidity;BME280_pressure;Samples;Min_cycle;Max_cycle;Signal;HPM_P1;HPM_P2
2023/07/19 00:00:41;;;;;;;5.35;3.35;;;;;;;18.52;67.01;101303.56;5113145;28;20022;-66
2023/07/19 00:03:07;;;;;;;5.40;3.25;;;;;;;18.45;67.42;101310.50;5112899;28;20039;-66
2023/07/19 00:05:32;;;;;;;6.82;3.78;;;;;;;18.38;67.74;101301.25;5113143;28;20038;-66
2023/07/19 00:07:57;;;;;;;4.45;3.30;;;;;;;18.44;67.65;101300.69;5114785;28;20520;-66
2023/07/19 00:10:23;;;;;;;8.02;3.38;;;;;;;18.48;67.48;101293.22;5114050;28;20418;-67
2023/07/19 00:12:49;;;;;;;5.95;3.25;;;;;;;18.46;67.53;101303.28;5114654;28;20027;-66
2023/07/19 00:15:14;;;;;;;7.25;3.60;;;;;;;18.32;67.94;101308.06;5114236;28;20027;-66
2023/07/19 00:17:42;;;;;;;10.32;3.60;;;;;;;18.41;67.68;101300.13;5114807;28;20157;-66
2023/07/19 00:20:08;;;;;;;10.48;4.07;;;;;;;18.26;67.97;101291.56;5114379;28;20034;-66
2023/07/19 00:22:35;;;;;;;5.75;3.72;;;;;;;18.19;68.26;101291.28;5114572;28;20043;-66
2023/07/19 00:25:01;;;;;;;6.88;3.55;;;;;;;18.26;68.00;101287.03;5113793;28;20075;-66
2023/07/19 00:27:26;;;;;;;4.75;3.53;;;;;;;18.28;67.98;101287.75;5113753;28;20028;-65
2023/07/19 00:29:52;;;;;;;8.48;3.70;;;;;;;18.19;68.78;101282.34;5111336;28;20031;-65
2023/07/19 00:32:17;;;;;;;8.13;3.90;;;;;;;18.00;68.97;101269.63;5095813;28;20020;-65
2023/07/19 00:34:43;;;;;;;9.05;3.88;;;;;;;18.11;69.07;101277.63;5113294;28;20027;-65
2023/07/19 00:37:08;;;;;;;5.03;3.72;;;;;;;18.06;69.52;101272.66;5114626;28;20140;-65
2023/07/19 00:39:33;;;;;;;6.43;3.65;;;;;;;18.05;69.60;101264.72;5113744;28;20042;-66
2023/07/19 00:41:59;;;;;;;8.05;3.90;;;;;;;18.09;70.02;101268.84;5114047;28;20077;-65
2023/07/19 00:44:24;;;;;;;7.80;4.18;;;;;;;17.76;70.88;101262.69;5093556;28;20041;-65
2023/07/19 00:46:52;;;;;;;6.88;4.40;;;;;;;17.64;71.01;101251.16;5113240;28;20032;-65
2023/07/19 00:49:20;;;;;;;6.95;3.83;;;;;;;17.69;71.15;101261.53;5112827;28;20023;-65
2023/07/19 00:51:46;;;;;;;9.13;3.80;;;;;;;17.78;70.53;101247.31;5114154;28;20023;-65
2023/07/19 00:54:12;;;;;;;6.32;3.22;;;;;;;17.65;70.69;101255.56;5113179;28;20485;-65
2023/07/19 00:56:41;;;;;;;6.10;3.70;;;;;;;17.74;70.47;101250.38;5095591;28;20092;-65
2023/07/19 00:59:07;;;;;;;4.80;3.00;;;;;;;17.73;70.79;101256.72;5094982;28;20032;-65
2023/07/19 01:01:33;;;;;;;5.57;3.90;;;;;;;17.55;71.20;101257.31;5078679;28;20546;-65
2023/07/19 01:03:58;;;;;;;4.13;3.60;;;;;;;17.67;70.74;101258.09;5113298;28;20035;-65
2023/07/19 01:06:24;;;;;;;4.30;3.55;;;;;;;17.58;71.11;101259.75;5095391;28;20034;-65
2023/07/19 01:08:49;;;;;;;6.97;3.97;;;;;;;17.61;71.00;101246.03;5113206;28;20023;-65
2023/07/19 01:11:17;;;;;;;8.98;3.80;;;;;;;17.54;71.23;101250.25;5095146;28;20036;-65
2023/07/19 01:13:55;;;;;;;4.53;3.47;;;;;;;17.66;70.86;101254.56;5113275;28;20103;-66
2023/07/19 01:16:21;;;;;;;6.28;3.80;;;;;;;17.37;71.63;101246.31;5088728;28;20019;-65
2023/07/19 01:18:48;;;;;;;7.28;3.60;;;;;;;17.51;71.33;101249.66;5112756;28;20355;-66
2023/07/19 01:21:13;;;;;;;6.57;3.92;;;;;;;17.44;71.46;101244.81;5113621;28;20394;-65
2023/07/19 01:23:39;;;;;;;7.47;3.72;;;;;;;17.36;72.36;101246.47;5091451;28;20055;-66
2023/07/19 01:26:05;;;;;;;8.95;4.10;;;;;;;17.50;71.30;101238.06;5112406;28;20057;-65
2023/07/19 01:28:30;;;;;;;8.75;3.78;;;;;;;17.27;72.30;101231.13;5110986;28;20051;-66
2023/07/19 01:30:56;;;;;;;7.68;4.22;;;;;;;17.43;72.08;101237.72;5111557;28;20020;-66
2023/07/19 01:33:21;;;;;;;10.57;3.95;;;;;;;17.51;71.68;101229.00;5112046;28;20064;-66
2023/07/19 01:35:47;;;;;;;11.82;4.32;;;;;;;17.29;72.31;101224.59;5112264;28;20062;-66
2023/07/19 01:38:12;;;;;;;12.15;4.32;;;;;;;17.41;72.49;101228.06;5094369;28;20053;-66
2023/07/19 01:40:37;;;;;;;11.70;4.53;;;;;;;17.16;72.78;101222.13;5093335;28;20051;-65
2023/07/19 01:43:03;;;;;;;18.35;5.40;;;;;;;17.22;72.82;101228.81;5110595;28;20027;-66
2023/07/19 01:45:28;;;;;;;20.60;4.72;;;;;;;17.37;72.61;101224.81;5092939;28;20371;-66
2023/07/19 01:47:54;;;;;;;14.90;4.80;;;;;;;17.17;73.29;101226.50;5111265;28;20378;-66
2023/07/19 01:50:19;;;;;;;13.43;5.22;;;;;;;17.34;72.88;101230.44;5111680;28;20463;-66
2023/07/19 01:52:44;;;;;;;24.88;5.43;;;;;;;17.34;73.29;101225.06;5111586;28;20367;-66
2023/07/19 01:55:10;;;;;;;30.05;5.60;;;;;;;17.23;73.66;101214.38;5111696;28;20027;-66
2023/07/19 01:57:35;;;;;;;19.48;5.13;;;;;;;17.16;73.46;101216.75;5108207;28;20027;-66
2023/07/19 02:00:01;;;;;;;18.67;5.57;;;;;;;17.15;74.06;101224.94;5111717;28;20045;-66
2023/07/19 02:02:29;;;;;;;27.10;5.88;;;;;;;17.21;73.46;101233.34;5076551;28;20015;-66
2023/07/19 02:04:55;;;;;;;19.42;5.57;;;;;;;17.13;72.96;101240.34;5093227;28;20042;-65
2023/07/19 02:07:20;;;;;;;23.65;6.25;;;;;;;17.31;72.74;101232.53;5112136;28;20049;-66
2023/07/19 02:09:46;;;;;;;17.95;5.25;;;;;;;17.28;73.21;101227.44;5110758;28;20101;-65
2023/07/19 02:12:12;;;;;;;25.65;5.82;;;;;;;17.42;72.39;101219.88;5093111;28;20031;-66
2023/07/19 02:14:37;;;;;;;21.15;5.50;;;;;;;17.30;72.68;101209.34;5092259;28;20516;-66
2023/07/19 02:17:03;;;;;;;19.98;5.97;;;;;;;17.25;72.90;101215.09;5111661;28;20039;-66
2023/07/19 02:19:28;;;;;;;28.38;5.72;;;;;;;17.28;73.30;101209.47;5111801;28;20482;-67
2023/07/19 02:21:54;;;;;;;20.92;5.70;;;;;;;17.30;73.45;101201.28;5112351;28;20470;-66
2023/07/19 02:24:19;;;;;;;15.02;4.68;;;;;;;17.20;73.51;101201.19;5109631;28;20382;-66
2023/07/19 02:26:44;;;;;;;16.00;4.88;;;;;;;17.19;74.14;101204.88;5094023;28;20146;-66
2023/07/19 02:29:12;;;;;;;13.93;4.82;;;;;;;17.19;73.76;101202.19;5111593;28;20474;-66
2023/07/19 02:31:37;;;;;;;8.60;4.40;;;;;;;17.23;73.39;101200.94;5112362;28;20114;-66
2023/07/19 02:34:07;;;;;;;9.88;4.45;;;;;;;17.20;74.17;101211.94;5112118;28;20047;-66
2023/07/19 02:36:35;;;;;;;15.48;4.38;;;;;;;17.15;74.27;101200.75;5109621;28;20375;-65
2023/07/19 02:39:02;;;;;;;6.63;3.97;;;;;;;17.25;73.97;101194.44;5109849;28;20031;-66
2023/07/19 02:41:28;;;;;;;6.55;4.80;;;;;;;17.18;73.99;101204.03;5092638;28;20470;-66
2023/07/19 02:43:53;;;;;;;6.88;3.88;;;;;;;17.23;73.79;101203.63;5110656;28;20026;-66
2023/07/19 02:46:20;;;;;;;9.32;4.20;;;;;;;17.20;74.14;101209.25;5110143;28;20394;-66
2023/07/19 02:48:45;;;;;;;6.10;4.80;;;;;;;17.21;74.19;101211.84;5092119;28;20027;-67
2023/07/19 02:51:10;;;;;;;7.55;4.30;;;;;;;17.24;73.63;101216.94;5092982;28;20045;-67
2023/07/19 02:53:37;;;;;;;7.85;4.82;;;;;;;17.18;74.55;101214.78;5109963;28;20327;-67
2023/07/19 02:56:03;;;;;;;9.70;5.20;;;;;;;17.29;73.13;101210.31;5109472;28;20514;-67
2023/07/19 02:58:28;;;;;;;7.28;4.90;;;;;;;17.22;73.41;101201.94;5109496;28;20032;-67
2023/07/19 03:00:54;;;;;;;6.93;4.38;;;;;;;17.30;73.22;101212.88;5110381;28;20432;-67
2023/07/19 03:03:20;;;;;;;6.18;4.90;;;;;;;17.29;73.46;101208.47;5080658;28;20032;-67
2023/07/19 03:05:45;;;;;;;8.27;4.60;;;;;;;17.24;73.61;101208.88;5093772;28;20020;-67
2023/07/19 03:08:11;;;;;;;7.05;4.90;;;;;;;17.19;73.96;101192.28;5108552;28;20027;-67
2023/07/19 03:10:40;;;;;;;7.70;4.65;;;;;;;17.12;74.71;101209.03;5091068;28;20414;-66
2023/07/19 03:13:06;;;;;;;6.93;4.72;;;;;;;17.19;74.69;101215.63;5110915;28;20047;-67
2023/07/19 03:15:33;;;;;;;6.50;5.18;;;;;;;17.12;74.91;101217.13;5110195;28;20386;-67
2023/07/19 03:18:07;;;;;;;9.88;5.95;;;;;;;17.21;74.40;101224.44;5111015;28;20015;-67
2023/07/19 03:20:34;;;;;;;9.07;4.97;;;;;;;17.15;74.22;101203.44;5092301;28;20024;-67
2023/07/19 03:23:00;;;;;;;7.20;4.47;;;;;;;17.21;74.12;101210.97;5110542;28;20024;-67
2023/07/19 03:25:28;;;;;;;9.50;5.05;;;;;;;17.19;74.45;101218.31;5109204;28;20443;-67
2023/07/19 03:27:53;;;;;;;8.18;5.40;;;;;;;17.18;73.86;101230.06;5112091;28;20102;-67
2023/07/19 03:30:19;;;;;;;9.45;4.93;;;;;;;17.12;74.02;101226.06;5111517;28;20110;-67
2023/07/19 03:32:44;;;;;;;7.55;5.53;;;;;;;17.10;74.46;101222.63;5111878;28;20019;-67
2023/07/19 03:35:10;;;;;;;8.05;6.10;;;;;;;17.14;73.95;101231.28;5093292;28;20031;-67
2023/07/19 03:37:36;;;;;;;8.70;5.90;;;;;;;17.17;73.66;101225.66;5108752;28;20687;-67
2023/07/19 03:40:02;;;;;;;7.70;5.30;;;;;;;17.09;73.55;101220.94;5111086;28;20053;-67
2023/07/19 03:42:28;;;;;;;7.30;5.03;;;;;;;17.22;74.08;101229.66;5113414;28;20031;-67
2023/07/19 03:44:56;;;;;;;9.50;5.25;;;;;;;16.96;74.43;101221.09;5114550;28;20027;-67
2023/07/19 03:47:22;;;;;;;12.30;5.77;;;;;;;17.09;75.69;101217.38;5114750;28;20024;-67
2023/07/19 03:49:47;;;;;;;9.18;4.95;;;;;;;17.14;75.57;101215.16;5114510;28;20475;-67
2023/07/19 03:52:15;;;;;;;7.18;5.30;;;;;;;17.17;75.72;101225.66;5114200;28;20042;-67
2023/07/19 03:54:40;;;;;;;8.82;5.55;;;;;;;17.12;75.68;101222.50;5114355;28;20024;-67
2023/07/19 03:57:06;;;;;;;8.20;5.32;;;;;;;17.07;75.95;101212.16;5115252;28;20157;-67
2023/07/19 03:59:33;;;;;;;10.57;5.40;;;;;;;17.17;76.56;101231.88;5114809;28;20040;-67
2023/07/19 04:01:59;;;;;;;9.98;5.22;;;;;;;17.09;77.29;101226.31;5115124;28;20023;-67
2023/07/19 04:04:24;;;;;;;9.35;6.07;;;;;;;17.11;76.96;101231.53;5114458;28;20053;-67
2023/07/19 04:06:49;;;;;;;9.40;5.30;;;;;;;17.02;77.23;101231.34;5114671;28;20443;-67
2023/07/19 04:09:15;;;;;;;9.18;6.05;;;;;;;17.12;77.99;101227.88;5114592;28;20035;-67
2023/07/19 04:11:43;;;;;;;9.50;6.35;;;;;;;17.12;78.90;101227.88;5114528;28;20050;-67
2023/07/19 04:14:11;;;;;;;8.90;6.72;;;;;;;17.01;78.04;101226.09;5114494;28;20462;-67
2023/07/19 04:16:36;;;;;;;10.57;6.53;;;;;;;17.01;78.03;101224.25;5114475;28;20028;-67
2023/07/19 04:19:01;;;;;;;9.70;6.30;;;;;;;17.11;77.48;101223.47;5114635;28;20023;-67
2023/07/19 04:21:29;;;;;;;8.48;6.18;;;;;;;17.10;78.02;101216.41;5114236;28;20095;-67
2023/07/19 04:23:55;;;;;;;7.95;6.72;;;;;;;17.00;76.95;101210.94;5095560;28;20016;-68
2023/07/19 04:26:25;;;;;;;9.15;6.13;;;;;;;17.01;78.36;101226.94;5096127;28;20147;-67
2023/07/19 04:28:50;;;;;;;9.50;6.63;;;;;;;16.96;78.78;101212.19;5096042;28;20019;-66
2023/07/19 04:31:16;;;;;;;9.63;6.63;;;;;;;17.01;78.06;101213.50;5114531;28;20063;-67
2023/07/19 04:33:41;;;;;;;9.18;6.70;;;;;;;17.01;79.25;101223.41;5114141;28;20035;-67
2023/07/19 04:36:14;;;;;;;10.38;7.07;;;;;;;17.05;78.75;101226.69;5095943;28;20485;-67
2023/07/19 04:38:42;;;;;;;10.20;7.25;;;;;;;17.02;78.19;101230.47;5095338;28;20081;-67
2023/07/19 04:41:08;;;;;;;7.35;6.65;;;;;;;17.15;76.99;101231.16;5095807;28;20098;-67
2023/07/19 04:43:34;;;;;;;12.50;7.40;;;;;;;17.12;77.03;101234.13;5113908;28;20118;-66
2023/07/19 04:46:00;;;;;;;9.52;6.72;;;;;;;17.22;77.37;101231.50;5093966;28;20028;-67
2023/07/19 04:48:25;;;;;;;11.32;6.85;;;;;;;17.20;78.79;101231.59;5113824;28;20096;-67
2023/07/19 04:50:55;;;;;;;9.75;6.63;;;;;;;17.21;77.89;101229.78;5113543;28;20024;-66
2023/07/19 04:53:21;;;;;;;9.43;6.75;;;;;;;17.14;78.50;101233.97;5094752;28;20030;-67
2023/07/19 04:55:49;;;;;;;8.15;6.93;;;;;;;17.26;78.38;101238.31;5095473;28;20073;-67
2023/07/19 04:58:15;;;;;;;9.95;6.38;;;;;;;17.27;77.42;101231.97;5113853;28;20047;-66
2023/07/19 05:00:40;;;;;;;10.93;6.40;;;;;;;17.27;77.47;101236.50;5113697;28;20015;-67
2023/07/19 05:03:06;;;;;;;8.57;6.57;;;;;;;17.28;77.46;101249.78;5095717;28;20027;-67
2023/07/19 05:05:34;;;;;;;14.82;7.18;;;;;;;17.30;76.62;101239.75;5095051;28;20102;-67
2023/07/19 05:07:59;;;;;;;9.13;6.78;;;;;;;17.25;76.11;101239.28;5113833;28;20440;-66
2023/07/19 05:10:25;;;;;;;8.73;6.75;;;;;;;17.25;76.54;101236.59;5112836;28;20055;-66
2023/07/19 05:12:52;;;;;;;11.30;7.07;;;;;;;17.35;75.71;101248.28;5094764;28;20031;-67
2023/07/19 05:15:18;;;;;;;8.63;6.45;;;;;;;17.27;76.33;101237.34;5107203;28;20027;-67
2023/07/19 05:17:43;;;;;;;8.80;6.28;;;;;;;17.38;75.94;101231.91;5113591;28;20377;-67
2023/07/19 05:20:11;;;;;;;11.13;7.30;;;;;;;17.42;75.85;101245.94;5094133;28;20023;-67
2023/07/19 05:22:36;;;;;;;8.57;6.88;;;;;;;17.43;75.92;101242.25;5112230;28;20471;-67
2023/07/19 05:25:03;;;;;;;10.20;6.30;;;;;;;17.46;75.46;101236.59;5111763;28;20042;-67
2023/07/19 05:27:31;;;;;;;8.63;6.43;;;;;;;17.59;75.54;101244.47;5113186;28;20539;-67
2023/07/19 05:29:56;;;;;;;13.10;6.00;;;;;;;17.55;75.60;101225.06;5112892;28;20088;-67
2023/07/19 05:32:21;;;;;;;9.85;7.13;;;;;;;17.61;75.42;101232.59;5094123;28;20024;-67
2023/07/19 05:34:47;;;;;;;10.40;7.05;;;;;;;17.68;74.60;101236.47;5110413;28;20401;-64
2023/07/19 05:37:12;;;;;;;12.32;5.97;;;;;;;17.80;75.60;101236.41;5094162;28;20072;-64
2023/07/19 05:39:38;;;;;;;10.30;6.50;;;;;;;17.82;75.95;101232.59;5111634;28;20028;-65
2023/07/19 05:42:03;;;;;;;11.10;6.32;;;;;;;17.91;74.85;101223.72;5093352;28;20098;-64
2023/07/19 05:44:29;;;;;;;8.50;5.53;;;;;;;18.04;74.06;101225.31;5111668;28;20492;-65
2023/07/19 05:46:57;;;;;;;11.10;6.82;;;;;;;17.98;73.80;101226.72;5094753;28;20364;-64
2023/07/19 05:49:22;;;;;;;10.40;5.88;;;;;;;18.03;74.91;101243.31;5112594;28;20027;-64
2023/07/19 05:51:48;;;;;;;8.80;5.50;;;;;;;18.11;74.22;101230.00;5112769;28;20046;-65
2023/07/19 05:54:14;;;;;;;11.40;6.25;;;;;;;18.19;73.04;101231.19;5094189;28;20019;-64
2023/07/19 05:56:39;;;;;;;9.38;6.53;;;;;;;18.16;74.60;101229.63;5090637;28;20092;-65
2023/07/19 05:59:05;;;;;;;9.80;5.78;;;;;;;18.28;73.38;101238.44;5111152;28;20034;-65
2023/07/19 06:01:33;;;;;;;11.77;6.28;;;;;;;18.32;73.16;101239.84;5111761;28;20026;-65
2023/07/19 06:03:58;;;;;;;9.80;6.40;;;;;;;18.38;74.03;101242.88;5107481;28;20501;-65
2023/07/19 06:06:25;;;;;;;9.30;6.53;;;;;;;18.34;72.61;101238.72;5092586;28;20027;-64
2023/07/19 06:08:50;;;;;;;9.00;6.70;;;;;;;18.36;73.60;101244.00;5111996;28;20031;-65
2023/07/19 06:11:16;;;;;;;8.40;5.65;;;;;;;18.33;73.02;101241.59;5111175;28;20067;-65
2023/07/19 06:13:41;;;;;;;11.70;6.63;;;;;;;18.35;72.84;101242.28;5111157;28;20493;-65
2023/07/19 06:16:06;;;;;;;9.85;5.90;;;;;;;18.37;72.89;101237.63;5111712;28;20105;-64
2023/07/19 06:18:32;;;;;;;10.13;6.20;;;;;;;18.49;72.68;101241.03;5110270;28;20032;-65
2023/07/19 06:20:57;;;;;;;12.25;5.68;;;;;;;18.72;73.87;101241.66;5109459;28;20034;-65
2023/07/19 06:23:23;;;;;;;13.63;6.13;;;;;;;18.89;72.32;101235.59;5110688;28;20027;-65
2023/07/19 06:25:49;;;;;;;12.40;6.03;;;;;;;18.88;72.00;101220.41;5112103;28;20028;-66
2023/07/19 06:28:15;;;;;;;8.27;6.03;;;;;;;18.92;70.60;101224.53;5111528;28;20382;-65
2023/07/19 06:30:41;;;;;;;8.93;5.95;;;;;;;19.00;71.08;101237.28;5108076;28;20032;-65
2023/07/19 06:33:06;;;;;;;8.73;6.25;;;;;;;19.01;70.07;101228.22;5111973;28;20031;-65
2023/07/19 06:35:33;;;;;;;13.15;6.05;;;;;;;19.05;70.81;101224.25;5111827;28;20103;-65
2023/07/19 06:37:59;;;;;;;11.30;5.80;;;;;;;19.01;70.59;101229.06;5112017;28;20019;-64
2023/07/19 06:40:26;;;;;;;13.45;5.70;;;;;;;19.05;70.61;101233.16;5111423;28;20038;-66
2023/07/19 06:42:52;;;;;;;8.50;6.00;;;;;;;19.10;69.92;101230.06;5112186;28;20030;-66
2023/07/19 06:45:18;;;;;;;7.47;6.00;;;;;;;19.12;70.21;101235.28;5093555;28;20118;-65
2023/07/19 06:47:43;;;;;;;15.50;6.13;;;;;;;19.15;70.99;101233.19;5112066;28;20055;-65
2023/07/19 06:50:09;;;;;;;11.32;5.50;;;;;;;19.36;71.34;101235.72;5111922;28;20471;-65
2023/07/19 06:52:34;;;;;;;10.73;6.10;;;;;;;19.55;69.18;101231.28;5093757;28;20027;-65
2023/07/19 06:55:00;;;;;;;10.48;6.15;;;;;;;19.58;68.87;101230.97;5111457;28;20098;-66
2023/07/19 06:57:25;;;;;;;19.30;6.55;;;;;;;19.69;68.75;101238.94;5112226;28;20062;-65
2023/07/19 06:59:53;;;;;;;10.38;5.88;;;;;;;19.79;67.98;101228.94;5111727;28;20091;-66
2023/07/19 07:02:18;;;;;;;7.32;5.63;;;;;;;19.77;68.44;101230.13;5111958;28;20023;-65
2023/07/19 07:04:45;;;;;;;11.93;5.47;;;;;;;19.73;68.57;101235.78;5093655;28;20163;-65
2023/07/19 07:07:11;;;;;;;9.05;5.82;;;;;;;19.82;68.21;101246.69;5111839;28;20028;-65
2023/07/19 07:09:37;;;;;;;9.57;5.63;;;;;;;20.00;68.80;101242.25;5110966;28;20039;-64
2023/07/19 07:12:03;;;;;;;24.40;5.75;;;;;;;20.26;66.56;101244.25;5093795;28;20024;-65
2023/07/19 07:14:29;;;;;;;10.15;4.63;;;;;;;20.38;65.77;101240.34;5112273;28;20024;-66
2023/07/19 07:16:54;;;;;;;11.27;5.15;;;;;;;20.55;64.93;101257.63;5115659;28;20015;-66
2023/07/19 07:19:20;;;;;;;8.27;4.05;;;;;;;20.52;64.88;101253.38;5115769;28;20035;-66
2023/07/19 07:21:45;;;;;;;9.30;4.50;;;;;;;20.56;64.88;101251.22;5116063;28;20016;-66
2023/07/19 07:24:10;;;;;;;9.18;4.50;;;;;;;20.47;64.07;101246.69;5096836;28;20057;-66
2023/07/19 07:26:36;;;;;;;8.35;4.30;;;;;;;20.37;63.43;101238.66;5096999;28;20446;-66
2023/07/19 07:29:01;;;;;;;9.45;4.32;;;;;;;20.34;62.61;101247.91;5115531;28;20489;-66
2023/07/19 07:31:27;;;;;;;8.50;4.75;;;;;;;20.25;62.50;101234.44;5115215;28;20077;-66
2023/07/19 07:33:52;;;;;;;10.63;4.20;;;;;;;20.28;63.21;101244.94;5096892;28;20069;-66
2023/07/19 07:36:18;;;;;;;7.97;4.10;;;;;;;20.23;63.46;101241.84;5115249;28;20112;-66
2023/07/19 07:38:48;;;;;;;10.38;5.43;;;;;;;20.18;64.07;101243.16;5114790;28;20022;-66
2023/07/19 07:41:13;;;;;;;10.02;4.30;;;;;;;20.31;63.74;101240.09;5115435;28;20041;-66
2023/07/19 07:43:38;;;;;;;7.18;3.90;;;;;;;20.37;63.67;101242.19;5096977;28;20466;-67
2023/07/19 07:46:04;;;;;;;7.65;4.32;;;;;;;20.46;62.91;101239.59;5114968;28;20019;-66
2023/07/19 07:48:30;;;;;;;7.70;4.15;;;;;;;20.50;63.50;101241.84;5115255;28;20037;-66
2023/07/19 07:50:56;;;;;;;11.68;4.05;;;;;;;20.46;63.35;101237.72;5115172;28;20026;-66
2023/07/19 07:53:21;;;;;;;10.52;4.35;;;;;;;20.45;61.60;101241.44;5114686;28;20024;-66
2023/07/19 07:55:48;;;;;;;7.30;3.78;;;;;;;20.47;61.39;101243.97;5114970;28;20043;-66
2023/07/19 07:58:14;;;;;;;17.27;4.30;;;;;;;20.64;61.41;101243.19;5097111;28;20020;-66
2023/07/19 08:00:40;;;;;;;11.32;4.43;;;;;;;20.75;61.79;101239.44;5114758;28;20076;-66
2023/07/19 08:03:06;;;;;;;11.73;4.63;;;;;;;20.87;61.19;101239.03;5097033;28;20070;-65
2023/07/19 08:05:32;;;;;;;8.25;4.20;;;;;;;20.91;60.52;101226.06;5114754;28;20107;-66
2023/07/19 08:07:57;;;;;;;11.05;4.93;;;;;;;20.93;61.58;101229.47;5096515;28;20066;-66
2023/07/19 08:10:23;;;;;;;8.52;4.10;;;;;;;20.85;60.79;101234.78;5114010;28;20075;-64
2023/07/19 08:12:48;;;;;;;8.55;3.88;;;;;;;20.81;60.33;101233.41;5114755;28;20042;-66
2023/07/19 08:15:13;;;;;;;10.20;4.78;;;;;;;20.93;61.06;101232.16;5114646;28;20450;-65
2023/07/19 08:17:39;;;;;;;6.88;3.42;;;;;;;21.23;60.79;101220.06;5114737;28;20088;-65
2023/07/19 08:20:06;;;;;;;4.75;3.50;;;;;;;21.45;59.79;101216.06;5114741;28;20027;-66
2023/07/19 08:22:33;;;;;;;9.45;4.30;;;;;;;21.58;58.03;101218.31;5114572;28;20478;-65
2023/07/19 08:24:59;;;;;;;6.50;3.67;;;;;;;21.74;57.77;101221.16;5114073;28;20076;-65
2023/07/19 08:27:25;;;;;;;5.75;3.30;;;;;;;21.84;57.87;101214.75;5095193;28;20404;-66
2023/07/19 08:29:52;;;;;;;6.82;3.75;;;;;;;21.88;56.99;101225.09;5114016;28;20119;-65
2023/07/19 08:32:17;;;;;;;5.78;3.25;;;;;;;21.98;56.53;101223.13;5079438;28;20405;-65
2023/07/19 08:34:43;;;;;;;8.73;3.80;;;;;;;21.89;55.98;101215.97;5114227;28;20019;-66
2023/07/19 08:37:09;;;;;;;5.50;3.13;;;;;;;21.94;56.16;101227.19;5096001;28;20106;-65
2023/07/19 08:39:36;;;;;;;10.93;3.70;;;;;;;21.83;55.99;101216.63;5113701;28;20055;-66
2023/07/19 08:42:05;;;;;;;10.05;3.60;;;;;;;21.72;55.39;101223.16;5114005;28;20474;-66
2023/07/19 08:44:31;;;;;;;7.13;3.55;;;;;;;21.61;56.21;101220.72;5113737;28;20015;-66
2023/07/19 08:46:57;;;;;;;11.35;4.10;;;;;;;21.49;57.10;101222.84;5095663;28;20030;-64
2023/07/19 08:49:23;;;;;;;11.43;3.85;;;;;;;21.52;57.16;101224.38;5113899;28;20019;-65
2023/07/19 08:51:51;;;;;;;11.38;4.10;;;;;;;21.61;57.76;101220.72;5113739;28;20019;-64
2023/07/19 08:54:17;;;;;;;8.85;3.72;;;;;;;21.71;57.63;101224.19;5095270;28;20072;-66
2023/07/19 08:56:45;;;;;;;8.20;3.80;;;;;;;21.82;58.50;101228.44;5095776;28;20455;-65
2023/07/19 08:59:10;;;;;;;9.88;3.53;;;;;;;21.84;57.78;101229.16;5113863;28;20436;-66
2023/07/19 09:01:36;;;;;;;12.52;3.92;;;;;;;22.00;58.08;101215.69;5095650;28;20020;-65
2023/07/19 09:04:09;;;;;;;10.73;4.20;;;;;;;22.17;55.78;101213.91;5078739;28;20035;-64
2023/07/19 09:06:35;;;;;;;9.02;4.32;;;;;;;22.14;55.53;101227.75;5095446;28;20023;-65
2023/07/19 09:09:01;;;;;;;8.80;4.43;;;;;;;22.26;55.21;101225.63;5094989;28;20497;-66
2023/07/19 09:11:26;;;;;;;7.05;4.10;;;;;;;22.23;55.73;101229.50;5095017;28;20255;-65
2023/07/19 09:13:53;;;;;;;9.45;4.53;;;;;;;22.48;55.84;101224.19;5113654;28;20490;-66
2023/07/19 09:16:29;;;;;;;11.30;4.32;;;;;;;22.66;56.06;101229.47;5113733;28;20522;-65
2023/07/19 09:18:57;;;;;;;16.17;4.07;;;;;;;22.49;55.16;101227.75;5113348;28;20067;-65
2023/07/19 09:21:42;;;;;;;9.07;4.70;;;;;;;22.58;55.99;101222.16;5095385;28;20072;-66
2023/07/19 09:24:09;;;;;;;8.70;3.88;;;;;;;22.87;56.00;101219.00;5094671;28;20032;-64
2023/07/19 09:26:51;;;;;;;9.82;4.45;;;;;;;22.95;55.40;101211.94;5094862;28;20360;-65
2023/07/19 09:29:20;;;;;;;8.48;4.03;;;;;;;23.15;56.49;101218.72;5113090;28;20028;-65
2023/07/19 09:32:03;;;;;;;;;;;;;;;23.53;54.57;101222.59;5113795;28;20028;-65
2023/07/19 09:34:38;;;;;;;9.93;3.90;;;;;;;23.28;54.91;101221.75;5113228;28;19972;-66
2023/07/19 09:37:05;;;;;;;9.00;3.60;;;;;;;23.34;53.91;101217.50;5093619;28;20048;-66
2023/07/19 09:39:33;;;;;;;7.43;3.50;;;;;;;23.27;53.02;101220.06;5112475;28;20028;-66
2023/07/19 09:41:59;;;;;;;7.68;3.35;;;;;;;23.27;52.84;101220.06;5112821;28;20055;-66
2023/07/19 09:44:25;;;;;;;9.07;3.58;;;;;;;23.34;52.74;101218.34;5113089;28;20106;-66
2023/07/19 09:46:53;;;;;;;8.80;2.78;;;;;;;23.54;53.96;101232.41;5112959;28;20165;-66
2023/07/19 09:49:19;;;;;;;6.30;3.17;;;;;;;23.48;53.50;101224.13;5094823;28;20024;-66
2023/07/19 09:51:47;;;;;;;8.10;3.50;;;;;;;23.25;53.73;101227.53;5112954;28;20024;-66
2023/07/19 09:54:14;;;;;;;6.77;3.40;;;;;;;23.35;53.64;101216.47;5094281;28;20051;-66
2023/07/19 09:56:41;;;;;;;7.78;3.13;;;;;;;23.29;54.74;101215.28;5112462;28;20529;-66
2023/07/19 09:59:11;;;;;;;13.65;3.58;;;;;;;23.12;55.35;101219.06;5112662;28;20514;-66
2023/07/19 10:01:37;;;;;;;7.25;2.78;;;;;;;23.21;54.06;101220.75;5094512;28;20031;-65
2023/07/19 10:04:23;;;;;;;7.50;3.05;;;;;;;23.27;54.96;101206.50;5112720;28;20023;-66
2023/07/19 10:06:51;;;;;;;8.38;3.10;;;;;;;23.30;56.04;101206.16;5112494;28;20069;-65
2023/07/19 10:09:25;;;;;;;8.35;3.20;;;;;;;23.50;54.48;101222.94;5111906;28;20036;-66
2023/07/19 10:11:50;;;;;;;7.55;3.47;;;;;;;23.44;53.84;101225.47;5094069;28;20044;-65
2023/07/19 10:14:31;;;;;;;7.05;3.00;;;;;;;23.45;54.43;101227.19;5112644;28;20050;-66
2023/07/19 10:16:58;;;;;;;8.23;2.80;;;;;;;23.19;53.41;101228.22;5112385;28;20047;-66
2023/07/19 10:19:24;;;;;;;7.35;3.42;;;;;;;23.01;54.20;101222.94;5112329;28;20080;-66
2023/07/19 10:22:07;;;;;;;6.88;2.83;;;;;;;22.97;54.72;101216.19;5094210;28;20033;-65
2023/07/19 10:24:35;;;;;;;8.80;2.88;;;;;;;22.85;54.71;101217.47;5093406;28;20367;-66
2023/07/19 10:27:34;;;;;;;7.32;2.92;;;;;;;22.89;54.50;101221.56;5112310;28;20020;-65
2023/07/19 10:30:04;;;;;;;10.82;3.13;;;;;;;22.94;54.08;101229.16;5112158;28;20031;-66
2023/07/19 10:32:30;;;;;;;6.72;2.50;;;;;;;23.00;53.90;101218.56;5112236;28;20020;-66
2023/07/19 10:34:56;;;;;;;8.15;2.50;;;;;;;23.26;53.41;101221.06;5093733;28;20023;-66
2023/07/19 10:37:22;;;;;;;5.03;2.60;;;;;;;23.55;53.52;101220.53;5112133;28;20390;-66
2023/07/19 10:39:50;;;;;;;5.55;2.38;;;;;;;23.51;52.51;101221.06;5111069;28;20024;-65
2023/07/19 10:42:15;;;;;;;5.57;2.50;;;;;;;23.51;51.04;101212.91;5112150;28;20410;-68
2023/07/19 10:44:40;;;;;;;5.28;2.17;;;;;;;23.42;49.64;101224.81;5111946;28;20062;-66
2023/07/19 10:47:13;;;;;;;3.72;2.28;;;;;;;23.38;51.65;101224.28;5111944;28;20213;-66
2023/07/19 10:49:38;;;;;;;5.00;2.28;;;;;;;23.51;51.35;101216.47;5094382;28;20098;-66
2023/07/19 10:52:04;;;;;;;8.27;2.58;;;;;;;23.82;50.82;101218.44;5098131;28;20394;-66
2023/07/19 10:54:32;;;;;;;4.63;1.90;;;;;;;24.26;49.86;101217.94;5115617;28;20474;-65
2023/07/19 10:56:57;;;;;;;7.13;2.30;;;;;;;24.74;49.86;101220.56;5116515;28;20050;-66
2023/07/19 10:59:23;;;;;;;5.35;2.08;;;;;;;24.74;48.09;101226.88;5116070;28;20019;-65
2023/07/19 11:01:51;;;;;;;6.60;2.50;;;;;;;24.52;48.13;101223.09;5116209;28;20011;-66
2023/07/19 11:04:19;;;;;;;7.00;2.13;;;;;;;24.34;49.01;101217.06;5097867;28;20023;-66
2023/07/19 11:06:56;;;;;;;7.15;2.65;;;;;;;24.13;56.43;101231.25;5116428;28;20361;-65
2023/07/19 11:09:22;;;;;;;4.72;2.60;;;;;;;24.02;59.62;101218.91;5114558;28;20036;-66
2023/07/19 11:11:49;;;;;;;4.07;2.50;;;;;;;24.11;63.82;101219.72;5115678;28;20105;-65
2023/07/19 11:14:32;;;;;;;9.02;2.42;;;;;;;24.60;60.45;101211.34;5116126;28;20435;-65
2023/07/19 11:16:58;;;;;;;4.80;2.15;;;;;;;25.14;57.88;101206.69;5115686;28;20023;-66
2023/07/19 11:19:39;;;;;;;6.57;2.40;;;;;;;25.43;55.84;101213.22;5115813;28;20020;-66